Time;durP1;ratioP1;P1;durP2;ratioP2;P2;SDS_P1;SDS_P2;PMS_P1;PMS_P2;Temp;Humidity;BMP_temperature;BMP_pressure;BME280_temperature;BME280_humidity;BME280_pressure;Samples;Min_cycle;Max_cycle;Signal;HPM_P1;HPM_P2
2023/07/19 00:01:37;;;;;;;5.43;1.40;;;;;;;16.31;88.07;100854.47;5056705;28;20541;-83
2023/07/19 00:04:04;;;;;;;4.80;1.00;;;;;;;16.33;87.50;100849.47;5058826;28;20955;-83
2023/07/19 00:06:31;;;;;;;5.43;1.10;;;;;;;16.31;86.96;100859.94;5058724;28;20489;-84
2023/07/19 00:08:57;;;;;;;6.33;1.70;;;;;;;16.24;87.32;100861.59;5057775;28;20549;-84
2023/07/19 00:11:24;;;;;;;5.30;1.50;;;;;;;16.21;87.08;100857.63;5057634;28;20512;-83
2023/07/19 00:13:52;;;;;;;5.67;1.60;;;;;;;16.13;87.58;100848.34;5056944;28;20445;-82
2023/07/19 00:16:19;;;;;;;7.63;1.70;;;;;;;16.05;88.40;100846.44;5057469;28;20481;-80
2023/07/19 00:18:45;;;;;;;5.33;1.47;;;;;;;16.00;88.42;100851.31;5056499;28;20995;-81
2023/07/19 00:21:12;;;;;;;5.40;1.93;;;;;;;15.96;88.68;100847.66;5056015;28;20445;-81
2023/07/19 00:23:39;;;;;;;6.10;1.57;;;;;;;15.87;89.32;100844.97;5057925;28;20517;-82
2023/07/19 00:26:05;;;;;;;6.53;1.67;;;;;;;15.91;88.79;100848.63;5059834;28;20505;-84
2023/07/19 00:28:32;;;;;;;4.33;0.83;;;;;;;15.91;88.60;100845.09;5060341;28;20505;-83
2023/07/19 00:31:04;;;;;;;5.13;1.53;;;;;;;15.79;89.93;100843.88;5060609;28;20464;-82
2023/07/19 00:33:31;;;;;;;6.07;1.70;;;;;;;15.79;90.03;100845.81;5063806;28;20533;-84
2023/07/19 00:35:57;;;;;;;4.93;1.07;;;;;;;15.73;90.84;100839.75;5064055;28;20892;-85
2023/07/19 00:38:24;;;;;;;5.27;1.00;;;;;;;15.80;91.48;100836.47;5063264;28;20489;-83
2023/07/19 00:40:51;;;;;;;6.23;1.70;;;;;;;15.80;91.28;100840.00;5062860;28;20450;-84
2023/07/19 00:43:17;;;;;;;4.90;1.30;;;;;;;15.86;89.70;100829.72;5063168;28;21258;-84
2023/07/19 00:45:47;;;;;;;5.93;1.60;;;;;;;15.87;90.15;100834.84;5063682;28;20482;-83
2023/07/19 00:48:17;;;;;;;5.40;1.33;;;;;;;15.89;90.09;100826.28;5065232;28;20438;-83
2023/07/19 00:50:49;;;;;;;6.57;1.43;;;;;;;15.84;90.75;100831.94;5059932;28;20481;-84
2023/07/19 00:53:16;;;;;;;5.43;1.60;;;;;;;15.76;90.63;100822.69;5041694;28;20481;-83
2023/07/19 00:55:43;;;;;;;5.33;1.30;;;;;;;15.68;91.70;100818.06;5040751;28;20918;-83
2023/07/19 00:58:10;;;;;;;5.93;1.90;;;;;;;15.75;90.91;100823.81;5038524;28;20446;-83
2023/07/19 01:00:36;;;;;;;6.13;1.50;;;;;;;15.71;91.13;100817.41;5043128;28;20521;-83
2023/07/19 01:03:03;;;;;;;5.83;1.60;;;;;;;15.68;91.70;100818.06;5058795;28;20512;-84
2023/07/19 01:05:31;;;;;;;6.10;1.87;;;;;;;15.65;91.91;100810.53;5059641;28;20572;-83
2023/07/19 01:08:11;;;;;;;6.53;1.60;;;;;;;15.63;91.36;100810.03;5067818;28;20485;-83
2023/07/19 01:10:37;;;;;;;5.30;1.40;;;;;;;15.58;91.81;100802.84;5059831;28;20482;-84
2023/07/19 01:13:06;;;;;;;5.20;1.07;;;;;;;15.57;92.60;100803.16;5059323;28;20477;-84
2023/07/19 01:15:33;;;;;;;5.90;1.83;;;;;;;15.54;92.34;100799.16;5060436;28;20427;-85
2023/07/19 01:17:59;;;;;;;5.77;2.00;;;;;;;15.57;91.48;100808.63;5061010;28;20467;-83
2023/07/19 01:20:27;;;;;;;5.90;1.80;;;;;;;15.55;91.48;100808.16;5060212;28;20442;-84
2023/07/19 01:22:55;;;;;;;6.50;1.70;;;;;;;15.49;92.18;100809.47;5059737;28;20473;-85
2023/07/19 01:25:22;;;;;;;5.50;1.50;;;;;;;15.43;91.94;100794.41;5059631;28;20508;-84
2023/07/19 01:27:49;;;;;;;6.70;1.97;;;;;;;15.45;92.15;100795.69;5060090;28;20489;-83
2023/07/19 01:30:16;;;;;;;6.30;1.50;;;;;;;15.42;92.43;100788.13;5058605;28;21003;-83
2023/07/19 01:32:44;;;;;;;7.53;2.03;;;;;;;15.38;92.20;100785.25;5058935;28;20521;-83
2023/07/19 01:35:11;;;;;;;5.23;1.50;;;;;;;15.27;92.52;100794.97;5058480;28;20457;-84
2023/07/19 01:37:38;;;;;;;5.30;1.60;;;;;;;15.34;91.36;100789.78;5058231;28;20442;-83
2023/07/19 01:40:07;;;;;;;5.00;1.30;;;;;;;15.18;92.85;100794.16;5057683;28;20493;-84
2023/07/19 01:42:33;;;;;;;5.80;1.40;;;;;;;15.19;92.68;100787.59;5058517;28;20537;-83
2023/07/19 01:45:01;;;;;;;5.20;1.53;;;;;;;15.24;92.32;100787.41;5058838;28;20541;-83
2023/07/19 01:47:27;;;;;;;5.97;1.40;;;;;;;15.28;92.30;100790.31;5059069;28;20254;-84
2023/07/19 01:49:55;;;;;;;7.53;1.60;;;;;;;15.26;92.74;100785.16;5059325;28;20530;-84
2023/07/19 01:52:22;;;;;;;6.73;2.03;;;;;;;15.26;92.54;100778.91;5059065;28;20454;-83
2023/07/19 01:54:49;;;;;;;5.37;1.53;;;;;;;15.30;92.18;100780.63;5060722;28;20466;-83
2023/07/19 01:57:17;;;;;;;5.03;1.23;;;;;;;15.25;92.50;100778.09;5060767;28;20519;-84
2023/07/19 01:59:44;;;;;;;5.97;1.90;;;;;;;15.27;91.72;100764.13;5059378;28;20466;-83
2023/07/19 02:02:10;;;;;;;5.23;1.70;;;;;;;15.30;92.23;100766.19;5060660;28;20478;-85
2023/07/19 02:04:37;;;;;;;7.10;1.80;;;;;;;15.24;92.31;100771.03;5060301;28;20446;-84
2023/07/19 02:07:04;;;;;;;5.80;1.80;;;;;;;15.27;92.13;100764.94;5059591;28;20543;-85
2023/07/19 02:09:30;;;;;;;5.93;1.47;;;;;;;15.24;92.04;100765.59;5058599;28;20462;-83
2023/07/19 02:11:57;;;;;;;5.53;1.33;;;;;;;15.13;92.68;100767.06;5058963;28;20438;-83
2023/07/19 02:14:25;;;;;;;5.97;1.63;;;;;;;15.16;92.25;100758.22;5058387;28;20458;-84
2023/07/19 02:16:52;;;;;;;4.97;1.37;;;;;;;15.14;90.11;100763.22;5058053;28;20468;-82
2023/07/19 02:19:18;;;;;;;5.80;1.73;;;;;;;15.09;87.25;100752.47;5057357;28;20561;-83
2023/07/19 02:21:45;;;;;;;6.80;1.70;;;;;;;14.98;87.06;100760.22;5059102;28;20482;-83
2023/07/19 02:24:12;;;;;;;6.60;1.73;;;;;;;14.93;88.14;100759.63;5051201;28;20459;-83
2023/07/19 02:26:38;;;;;;;7.93;2.00;;;;;;;15.00;88.63;100757.16;5039770;28;20522;-83
2023/07/19 02:29:05;;;;;;;5.77;1.53;;;;;;;15.00;90.03;100755.22;5073487;22;20478;-67
2023/07/19 02:31:35;;;;;;;5.27;1.30;;;;;;;15.00;91.88;100743.53;5032737;28;20495;-67
2023/07/19 02:34:02;;;;;;;5.23;1.57;;;;;;;15.09;92.41;100738.84;5074249;22;20490;-70
2023/07/19 02:36:28;;;;;;;5.53;1.33;;;;;;;15.14;92.36;100731.28;5052630;28;20525;-70
2023/07/19 02:38:55;;;;;;;5.10;1.20;;;;;;;15.20;92.53;100731.91;5048344;28;20522;-70
2023/07/19 02:41:21;;;;;;;5.27;1.40;;;;;;;15.14;93.54;100723.09;5034774;28;20439;-70
2023/07/19 02:43:49;;;;;;;6.70;1.87;;;;;;;15.19;93.49;100730.31;5058354;28;20493;-70
2023/07/19 02:46:16;;;;;;;5.23;1.47;;;;;;;15.26;93.47;100730.56;5052479;28;20857;-70
2023/07/19 02:48:44;;;;;;;9.43;2.17;;;;;;;15.41;92.76;100720.25;5053422;28;20460;-70
2023/07/19 02:51:10;;;;;;;6.30;2.00;;;;;;;15.29;92.99;100729.91;5053687;28;20450;-70
2023/07/19 02:53:38;;;;;;;6.10;1.63;;;;;;;15.26;93.51;100733.28;5053800;28;20465;-70
2023/07/19 02:56:05;;;;;;;5.33;1.60;;;;;;;15.37;93.02;100739.19;5054463;28;20971;-70
2023/07/19 02:58:31;;;;;;;5.47;1.60;;;;;;;15.42;92.73;100738.22;5053631;28;20460;-70
2023/07/19 03:00:58;;;;;;;6.43;1.90;;;;;;;15.42;92.78;100735.47;5054997;28;20974;-69
2023/07/19 03:03:25;;;;;;;5.40;1.60;;;;;;;15.39;92.47;100735.00;5073255;28;20473;-70
2023/07/19 03:05:52;;;;;;;5.30;1.30;;;;;;;15.48;88.35;100736.88;5066723;28;20485;-69
2023/07/19 03:08:19;;;;;;;7.70;1.90;;;;;;;15.50;85.30;100734.63;5071400;28;20965;-69
2023/07/19 03:10:46;;;;;;;5.17;1.20;;;;;;;15.46;86.47;100744.63;5053457;28;20481;-71
2023/07/19 03:13:12;;;;;;;6.07;1.50;;;;;;;15.45;89.37;100737.53;5053440;28;20497;-70
2023/07/19 03:15:39;;;;;;;5.57;1.57;;;;;;;15.43;90.69;100734.34;5054613;28;20500;-69
2023/07/19 03:18:06;;;;;;;5.33;1.60;;;;;;;15.45;91.32;100737.53;5053463;28;20537;-70
2023/07/19 03:20:32;;;;;;;6.27;1.47;;;;;;;15.41;92.08;100737.41;5058111;28;20448;-69
2023/07/19 03:23:01;;;;;;;5.53;1.60;;;;;;;15.45;92.19;100737.53;5073265;28;20552;-70
2023/07/19 03:25:28;;;;;;;4.97;1.20;;;;;;;15.49;92.28;100739.25;5073363;28;20528;-70
2023/07/19 03:27:55;;;;;;;8.10;1.57;;;;;;;15.61;91.47;100736.63;5072925;28;20993;-70
2023/07/19 03:30:22;;;;;;;4.90;1.50;;;;;;;15.57;91.71;100732.97;5061036;28;20464;-70
2023/07/19 03:32:48;;;;;;;4.87;1.27;;;;;;;15.61;91.63;100736.63;5059207;28;20589;-69
2023/07/19 03:35:16;;;;;;;5.67;1.70;;;;;;;15.60;91.92;100734.25;5050654;28;20880;-70
2023/07/19 03:37:44;;;;;;;5.47;1.87;;;;;;;15.62;92.32;100727.31;5052408;28;20444;-69
2023/07/19 03:40:13;;;;;;;4.77;1.20;;;;;;;15.61;92.15;100727.66;5053097;28;20485;-70
2023/07/19 03:42:39;;;;;;;5.30;1.80;;;;;;;15.62;92.20;100721.03;5053042;28;20462;-69
2023/07/19 03:45:07;;;;;;;7.00;2.00;;;;;;;15.64;92.45;100722.34;5056744;28;20536;-69
2023/07/19 03:47:34;;;;;;;6.00;1.63;;;;;;;15.69;93.00;100732.28;5072988;28;20504;-70
2023/07/19 03:50:00;;;;;;;5.60;1.10;;;;;;;15.73;94.78;100725.03;5060581;28;20827;-70
2023/07/19 03:52:27;;;;;;;4.90;1.30;;;;;;;15.87;94.36;100724.75;5044929;28;20451;-70
2023/07/19 03:54:56;;;;;;;5.17;1.53;;;;;;;15.96;95.38;100724.69;5053281;28;20481;-68
2023/07/19 03:57:24;;;;;;;5.40;1.40;;;;;;;15.99;97.24;100724.84;5068609;28;20448;-70
2023/07/19 03:59:51;;;;;;;7.53;1.80;;;;;;;16.03;97.30;100725.78;5056769;28;20821;-70
2023/07/19 04:02:19;;;;;;;6.20;2.00;;;;;;;16.05;97.55;100719.97;5056736;28;20522;-69
2023/07/19 04:04:46;;;;;;;5.80;1.43;;;;;;;16.07;98.00;100721.22;5057085;28;20442;-70
2023/07/19 04:07:12;;;;;;;6.20;1.70;;;;;;;16.10;99.06;100723.28;5056947;28;20832;-70
2023/07/19 04:09:39;;;;;;;5.00;1.33;;;;;;;16.14;99.41;100728.88;5058578;28;20533;-70
2023/07/19 04:12:07;;;;;;;5.13;1.40;;;;;;;16.16;100.00;100729.38;5059689;28;20442;-70
2023/07/19 04:14:35;;;;;;;6.30;1.40;;;;;;;16.19;100.00;100733.34;5058209;28;20498;-69
2023/07/19 04:17:01;;;;;;;5.70;1.50;;;;;;;16.19;100.00;100736.06;5055173;28;20477;-71
2023/07/19 04:19:28;;;;;;;10.23;1.97;;;;;;;16.22;100.00;100729.94;5052936;28;20525;-71
2023/07/19 04:21:54;;;;;;;5.67;1.50;;;;;;;16.23;100.00;100735.06;5056809;28;20560;-71
2023/07/19 04:24:21;;;;;;;5.90;1.83;;;;;;;16.25;100.00;100737.47;5056617;28;20493;-71
2023/07/19 04:26:48;;;;;;;6.40;1.47;;;;;;;16.29;100.00;100724.72;5068973;28;20526;-71
2023/07/19 04:29:14;;;;;;;5.80;1.43;;;;;;;16.36;100.00;100722.25;5076554;28;20441;-71
2023/07/19 04:31:42;;;;;;;6.53;1.87;;;;;;;16.43;100.00;100718.97;5076502;28;20882;-71
2023/07/19 04:34:11;;;;;;;5.80;1.93;;;;;;;16.49;100.00;100710.22;5074399;28;20919;-72
2023/07/19 04:36:37;;;;;;;6.93;2.00;;;;;;;16.58;100.00;100710.13;5074143;28;20445;-71
2023/07/19 04:39:05;;;;;;;5.80;1.47;;;;;;;16.67;100.00;100704.56;5056319;28;20504;-71
2023/07/19 04:41:32;;;;;;;5.17;1.60;;;;;;;16.75;100.00;100711.91;5056203;28;20446;-71
2023/07/19 04:43:59;;;;;;;4.70;1.10;;;;;;;16.82;100.00;100712.94;5064091;28;20886;-71
2023/07/19 04:46:25;;;;;;;5.40;1.53;;;;;;;16.89;100.00;100710.44;5055836;28;21022;-71
2023/07/19 04:48:53;;;;;;;6.40;1.57;;;;;;;16.97;100.00;100716.16;5062025;28;21022;-71
2023/07/19 04:51:20;;;;;;;5.63;1.40;;;;;;;17.04;100.00;100708.16;5076132;28;20441;-74
2023/07/19 04:53:46;;;;;;;5.20;1.53;;;;;;;17.09;100.00;100703.28;5075681;28;20547;-72
2023/07/19 04:56:13;;;;;;;7.03;1.40;;;;;;;17.11;98.50;100702.91;5075714;28;20441;-73
2023/07/19 04:58:40;;;;;;;6.17;2.00;;;;;;;17.16;96.85;100708.16;5075593;28;20815;-73
2023/07/19 05:01:08;;;;;;;4.97;1.10;;;;;;;17.22;95.68;100703.25;5073843;28;20536;-72
2023/07/19 05:03:34;;;;;;;4.80;1.37;;;;;;;17.28;93.07;100702.69;5065427;28;20461;-72
2023/07/19 05:06:02;;;;;;;9.80;1.23;;;;;;;17.37;92.74;100711.59;5075560;28;20540;-73
2023/07/19 05:08:29;;;;;;;5.27;1.43;;;;;;;17.49;94.05;100712.72;5074508;28;20485;-73
2023/07/19 05:10:56;;;;;;;6.40;1.60;;;;;;;17.56;95.11;100715.66;5075401;28;20525;-74
2023/07/19 05:13:22;;;;;;;5.30;1.23;;;;;;;17.59;95.59;100718.50;5075640;28;20457;-73
2023/07/19 05:15:49;;;;;;;5.03;1.20;;;;;;;17.64;94.71;100720.22;5075689;28;20472;-74
2023/07/19 05:18:15;;;;;;;4.60;0.90;;;;;;;17.69;93.93;100717.25;5075677;28;20441;-74
2023/07/19 05:20:42;;;;;;;4.50;0.87;;;;;;;17.78;93.71;100722.63;5075559;28;20445;-74
2023/07/19 05:23:10;;;;;;;14.70;1.90;;;;;;;17.79;91.02;100714.03;5063922;28;20484;-73
2023/07/19 05:25:36;;;;;;;5.37;1.53;;;;;;;17.88;89.08;100725.69;5055238;28;20977;-74
2023/07/19 05:28:03;;;;;;;5.40;1.57;;;;;;;17.96;88.42;100714.91;5055769;28;20577;-74
2023/07/19 05:30:30;;;;;;;5.27;1.40;;;;;;;18.01;88.99;100715.47;5070856;28;20449;-74
2023/07/19 05:32:56;;;;;;;5.93;1.33;;;;;;;18.09;90.23;100727.44;5075119;28;20515;-73
2023/07/19 05:35:23;;;;;;;5.30;1.23;;;;;;;18.17;91.34;100725.69;5060557;28;20434;-73
2023/07/19 05:37:50;;;;;;;5.30;1.00;;;;;;;18.20;89.92;100730.50;5063398;28;20521;-74
2023/07/19 05:40:18;;;;;;;5.40;1.33;;;;;;;18.23;90.20;100722.34;5066746;28;20476;-77
2023/07/19 05:42:44;;;;;;;5.10;1.20;;;;;;;18.28;89.61;100724.03;5066650;28;20565;-72
2023/07/19 05:45:11;;;;;;;5.50;0.90;;;;;;;18.28;86.50;100730.34;5055104;28;20541;-71
2023/07/19 05:47:38;;;;;;;9.63;1.40;;;;;;;18.30;85.43;100721.75;5054766;28;20517;-71
2023/07/19 05:50:05;;;;;;;4.73;1.20;;;;;;;18.32;85.49;100723.00;5055065;28;20466;-71
2023/07/19 05:52:32;;;;;;;5.03;1.13;;;;;;;18.38;84.92;100710.63;5061246;28;20880;-71
2023/07/19 05:54:58;;;;;;;6.20;1.17;;;;;;;18.48;85.95;100716.75;5055012;28;20443;-70
2023/07/19 05:57:26;;;;;;;5.80;1.27;;;;;;;18.48;84.70;100714.81;5054931;28;20445;-71
2023/07/19 05:59:53;;;;;;;5.30;1.30;;;;;;;18.55;83.81;100709.53;5054920;28;20534;-71
2023/07/19 06:02:20;;;;;;;5.47;1.03;;;;;;;18.63;83.34;100710.47;5066778;28;20450;-72
2023/07/19 06:04:47;;;;;;;4.73;1.20;;;;;;;18.67;81.12;100712.16;5055859;28;20886;-72
2023/07/19 06:07:15;;;;;;;4.80;1.30;;;;;;;18.80;81.07;100718.41;5060237;28;20483;-72
2023/07/19 06:09:42;;;;;;;5.10;1.40;;;;;;;18.82;77.43;100724.34;5074382;28;21001;-72
2023/07/19 06:12:09;;;;;;;4.53;1.00;;;;;;;18.93;73.74;100718.34;5060655;28;20474;-72
2023/07/19 06:14:37;;;;;;;5.50;1.10;;;;;;;19.14;72.74;100714.16;5054231;28;20462;-71
2023/07/19 06:17:05;;;;;;;9.70;1.13;;;;;;;19.23;71.80;100713.19;5059248;28;20455;-72
2023/07/19 06:19:31;;;;;;;6.50;1.10;;;;;;;19.36;72.43;100715.47;5054518;28;20449;-71
2023/07/19 06:21:59;;;;;;;11.03;1.40;;;;;;;19.46;75.90;100713.31;5054463;28;20529;-70
2023/07/19 06:24:25;;;;;;;4.90;1.20;;;;;;;19.42;72.51;100711.28;5054367;28;20578;-73
2023/07/19 06:26:52;;;;;;;4.50;1.03;;;;;;;19.48;75.89;100716.50;5054215;28;20489;-72
2023/07/19 06:29:19;;;;;;;4.30;0.80;;;;;;;19.49;78.13;100716.16;5054999;28;20967;-74
2023/07/19 06:31:46;;;;;;;4.90;0.90;;;;;;;19.45;75.42;100707.03;5073512;28;20445;-74
2023/07/19 06:34:13;;;;;;;4.97;0.90;;;;;;;19.49;74.93;100707.91;5073781;28;20485;-73
2023/07/19 06:36:40;;;;;;;5.60;1.23;;;;;;;19.57;76.95;100706.13;5068046;28;21030;-72
2023/07/19 06:39:06;;;;;;;4.60;1.00;;;;;;;19.67;74.62;100702.84;5072955;28;20529;-72
2023/07/19 06:41:33;;;;;;;4.60;1.13;;;;;;;19.75;77.78;100704.59;5071619;28;20469;-73
2023/07/19 06:44:00;;;;;;;5.10;1.13;;;;;;;19.81;77.09;100703.13;5072186;28;20546;-73
2023/07/19 06:46:26;;;;;;;4.53;0.90;;;;;;;19.91;79.31;100691.56;5069518;28;20474;-72
2023/07/19 06:48:56;;;;;;;4.70;1.03;;;;;;;20.09;79.05;100694.66;5062135;28;20486;-73
2023/07/19 06:51:23;;;;;;;5.00;1.20;;;;;;;20.26;72.42;100682.41;5053374;28;20520;-71
2023/07/19 06:53:49;;;;;;;4.80;0.90;;;;;;;20.43;69.37;100686.66;5053507;28;20889;-69
2023/07/19 06:56:16;;;;;;;4.60;1.07;;;;;;;20.63;66.69;100687.44;5053529;28;20994;-71
2023/07/19 06:58:42;;;;;;;4.47;0.77;;;;;;;20.82;68.85;100673.59;5067527;28;20480;-72
2023/07/19 07:01:09;;;;;;;4.53;0.90;;;;;;;20.96;71.28;100683.25;5073645;28;20496;-72
2023/07/19 07:03:36;;;;;;;5.00;1.10;;;;;;;21.02;71.75;100684.53;5073324;28;20544;-70
2023/07/19 07:06:04;;;;;;;4.40;0.80;;;;;;;21.02;72.85;100690.03;5073631;28;20453;-71
2023/07/19 07:08:30;;;;;;;4.80;1.10;;;;;;;21.00;74.28;100690.41;5073555;28;20925;-71
2023/07/19 07:10:59;;;;;;;7.27;1.03;;;;;;;20.99;71.90;100693.56;5073550;28;20437;-71
2023/07/19 07:13:26;;;;;;;4.93;1.17;;;;;;;21.06;67.54;100693.66;5073104;28;20457;-71
2023/07/19 07:15:53;;;;;;;5.33;1.27;;;;;;;21.18;64.01;100693.44;5063824;28;20526;-71
2023/07/19 07:18:19;;;;;;;4.40;0.80;;;;;;;21.29;61.76;100683.38;5053509;28;20466;-70
2023/07/19 07:20:46;;;;;;;4.70;1.00;;;;;;;21.35;61.89;100679.19;5053098;28;20542;-71
2023/07/19 07:23:14;;;;;;;6.03;1.13;;;;;;;21.44;63.91;100686.38;5059294;28;20458;-71
2023/07/19 07:25:41;;;;;;;5.10;1.20;;;;;;;21.38;64.84;100685.88;5058591;28;20442;-70
2023/07/19 07:28:08;;;;;;;5.67;1.03;;;;;;;21.29;65.50;100679.81;5063462;28;21028;-71
2023/07/19 07:30:37;;;;;;;5.00;1.20;;;;;;;21.28;67.07;100681.00;5068720;28;20543;-72
2023/07/19 07:33:03;;;;;;;5.00;1.17;;;;;;;21.45;66.83;100677.72;5060384;28;20863;-71
2023/07/19 07:35:30;;;;;;;4.43;0.97;;;;;;;21.55;58.83;100673.53;5064292;28;20483;-70
2023/07/19 07:37:57;;;;;;;5.27;1.17;;;;;;;21.67;55.44;100674.09;5057701;28;20454;-70
2023/07/19 07:40:25;;;;;;;4.80;0.87;;;;;;;21.94;56.08;100667.72;5052419;28;20948;-70
2023/07/19 07:42:51;;;;;;;7.40;0.80;;;;;;;22.12;55.15;100668.75;5052897;28;20549;-70
2023/07/19 07:45:18;;;;;;;4.77;1.00;;;;;;;22.26;54.78;100668.09;5046615;28;20456;-71
2023/07/19 07:47:45;;;;;;;7.07;2.00;;;;;;;22.32;54.38;100664.63;5051071;28;20486;-71
2023/07/19 07:50:11;;;;;;;8.23;1.37;;;;;;;22.46;55.16;100658.44;5051660;28;20519;-71
2023/07/19 07:52:39;;;;;;;5.20;1.10;;;;;;;22.52;53.91;100656.13;5055113;28;20979;-70
2023/07/19 07:55:06;;;;;;;4.73;1.13;;;;;;;22.52;53.84;100656.13;5047339;28;20473;-71
2023/07/19 07:57:36;;;;;;;6.10;1.23;;;;;;;22.67;55.14;100655.09;5045294;28;20501;-70
2023/07/19 08:00:06;;;;;;;5.13;0.93;;;;;;;22.67;55.07;100658.66;5052348;28;20464;-72
2023/07/19 08:02:32;;;;;;;5.00;0.90;;;;;;;22.77;52.02;100651.63;5052835;28;20476;-72
2023/07/19 08:05:00;;;;;;;5.53;0.90;;;;;;;22.86;51.28;100652.09;5047801;28;20493;-70
2023/07/19 08:07:26;;;;;;;4.50;0.93;;;;;;;23.08;52.14;100655.03;5049800;28;20500;-71
2023/07/19 08:09:53;;;;;;;4.80;0.93;;;;;;;23.11;51.04;100655.06;5052858;28;20468;-72
2023/07/19 08:12:20;;;;;;;4.97;0.97;;;;;;;23.18;51.27;100654.31;5052745;28;20472;-69
2023/07/19 08:14:48;;;;;;;4.60;0.93;;;;;;;23.21;49.11;100653.53;5052587;28;20568;-70
2023/07/19 08:17:15;;;;;;;8.30;1.00;;;;;;;23.21;49.45;100661.84;5052867;28;20474;-71
2023/07/19 08:19:41;;;;;;;4.50;0.90;;;;;;;23.21;49.43;100658.28;5052548;28;20500;-71
2023/07/19 08:22:08;;;;;;;4.40;0.90;;;;;;;23.09;49.08;100656.63;5052498;28;20452;-71
2023/07/19 08:24:34;;;;;;;5.50;0.80;;;;;;;23.16;49.72;100657.47;5052630;28;20470;-71
2023/07/19 08:27:01;;;;;;;6.63;1.07;;;;;;;23.21;51.04;100663.81;5052413;28;20533;-71
2023/07/19 08:29:28;;;;;;;4.30;0.77;;;;;;;23.22;50.13;100649.59;5052309;28;20481;-71
2023/07/19 08:31:56;;;;;;;4.40;0.80;;;;;;;23.15;50.36;100653.13;5052371;28;20826;-71
2023/07/19 08:34:22;;;;;;;5.00;0.90;;;;;;;23.24;50.75;100647.25;5052290;28;20531;-71
2023/07/19 08:36:49;;;;;;;4.90;1.20;;;;;;;23.29;49.68;100644.13;5052274;28;20982;-70
2023/07/19 08:39:16;;;;;;;5.70;1.50;;;;;;;23.41;50.75;100646.53;5052353;28;20446;-71
2023/07/19 08:41:44;;;;;;;5.00;1.30;;;;;;;23.48;50.88;100645.78;5052593;28;20516;-71
2023/07/19 08:44:11;;;;;;;4.57;0.93;;;;;;;23.47;51.11;100637.91;5053213;28;21084;-71
2023/07/19 08:46:39;;;;;;;4.40;1.00;;;;;;;23.36;51.59;100632.28;5056276;28;20438;-71
2023/07/19 08:49:07;;;;;;;5.13;1.23;;;;;;;23.44;50.40;100644.19;5056084;28;20825;-71
2023/07/19 08:51:35;;;;;;;4.70;1.17;;;;;;;23.60;51.98;100641.91;5056169;28;20484;-70
2023/07/19 08:54:01;;;;;;;13.80;1.60;;;;;;;23.75;51.79;100646.34;5056260;28;20493;-70
2023/07/19 08:56:30;;;;;;;5.17;1.00;;;;;;;23.72;48.89;100638.81;5055783;28;20468;-70
2023/07/19 08:58:57;;;;;;;5.20;0.90;;;;;;;23.75;49.48;100638.03;5055793;28;20438;-70
2023/07/19 09:01:24;;;;;;;4.53;1.10;;;;;;;23.67;50.00;100637.22;5055703;28;20434;-70
2023/07/19 09:03:50;;;;;;;4.63;0.90;;;;;;;23.60;51.51;100630.84;5055575;28;20847;-71
2023/07/19 09:06:24;;;;;;;5.47;1.13;;;;;;;23.59;50.14;100634.78;5055634;28;20975;-70
2023/07/19 09:08:52;;;;;;;7.23;1.40;;;;;;;23.71;49.86;100633.69;5055510;28;20999;-70
2023/07/19 09:11:20;;;;;;;7.23;0.90;;;;;;;23.93;49.20;100629.78;5055792;28;20448;-70
2023/07/19 09:13:52;;;;;;;4.70;1.20;;;;;;;24.08;49.32;100636.97;5055345;28;20987;-70
2023/07/19 09:16:26;;;;;;;4.53;0.93;;;;;;;24.21;49.50;100637.38;5055779;28;20423;-70
2023/07/19 09:18:54;;;;;;;5.43;1.37;;;;;;;24.27;47.38;100635.81;5055452;28;20614;-70
2023/07/19 09:21:32;;;;;;;5.80;1.40;;;;;;;24.35;48.96;100631.88;5055613;28;20446;-70
2023/07/19 09:23:59;;;;;;;5.07;1.10;;;;;;;24.65;47.22;100627.94;5055512;28;20879;-70
2023/07/19 09:26:26;;;;;;;6.50;1.10;;;;;;;24.70;47.02;100619.22;5055537;28;20442;-71
2023/07/19 09:28:52;;;;;;;5.93;1.10;;;;;;;24.77;45.92;100627.53;5055375;28;20482;-71
2023/07/19 09:31:19;;;;;;;5.00;1.07;;;;;;;24.75;48.05;100610.53;5055141;28;20478;-71
2023/07/19 09:33:46;;;;;;;4.57;1.17;;;;;;;24.73;46.50;100621.22;5054844;28;20474;-70
2023/07/19 09:36:18;;;;;;;4.20;0.70;;;;;;;24.91;45.95;100608.13;5055087;28;20482;-70
2023/07/19 09:38:46;;;;;;;4.67;1.03;;;;;;;25.01;45.06;100612.06;5055027;28;20427;-70
2023/07/19 09:41:13;;;;;;;5.67;1.40;;;;;;;25.08;45.07;100612.09;5054986;28;20489;-70
2023/07/19 09:43:41;;;;;;;5.20;1.30;;;;;;;25.10;45.58;100608.91;5054809;28;20500;-70
2023/07/19 09:46:09;;;;;;;5.53;1.10;;;;;;;25.20;44.75;100601.78;5054888;28;20534;-70
2023/07/19 09:48:36;;;;;;;6.37;1.10;;;;;;;25.34;44.48;100602.50;5054718;28;21006;-70
2023/07/19 09:51:03;;;;;;;5.30;1.37;;;;;;;25.44;44.23;100602.88;5055125;28;20877;-70
2023/07/19 09:53:33;;;;;;;5.70;1.10;;;;;;;25.36;43.90;100594.56;5054606;28;20994;-70
2023/07/19 09:56:01;;;;;;;4.87;1.10;;;;;;;25.21;43.85;100590.28;5054521;28;20814;-70
2023/07/19 09:58:30;;;;;;;4.30;0.77;;;;;;;25.40;42.64;100600.91;5054736;28;20533;-70
2023/07/19 10:00:58;;;;;;;4.40;0.90;;;;;;;25.48;42.57;100592.56;5054597;28;20481;-70
2023/07/19 10:03:25;;;;;;;4.50;1.03;;;;;;;25.35;42.87;100593.00;5054782;28;20472;-75
2023/07/19 10:05:56;;;;;;;4.90;1.00;;;;;;;25.32;44.57;100596.59;5054766;28;20442;-73
2023/07/19 10:08:23;;;;;;;4.93;0.90;;;;;;;25.45;42.52;100590.56;5054373;28;20474;-76
2023/07/19 10:10:57;;;;;;;5.27;0.80;;;;;;;25.65;43.01;100594.47;5054670;28;20438;-75
2023/07/19 10:13:31;;;;;;;4.40;0.70;;;;;;;25.72;43.53;100588.06;5054566;28;20480;-70
2023/07/19 10:15:57;;;;;;;4.70;0.97;;;;;;;25.72;44.26;100590.84;5054712;28;20465;-70
2023/07/19 10:18:27;;;;;;;4.63;0.77;;;;;;;25.77;43.82;100593.25;5054577;28;20434;-70
2023/07/19 10:21:01;;;;;;;6.00;1.17;;;;;;;25.92;43.58;100581.66;5054516;28;20454;-69
2023/07/19 10:23:30;;;;;;;4.80;0.97;;;;;;;26.03;43.38;100589.09;5054394;28;20470;-70
2023/07/19 10:25:57;;;;;;;4.60;0.90;;;;;;;26.10;42.82;100580.75;5053626;28;20768;-69
2023/07/19 10:28:29;;;;;;;5.00;1.13;;;;;;;26.10;42.64;100577.97;5053704;28;20482;-69
2023/07/19 10:30:58;;;;;;;5.60;1.23;;;;;;;26.28;41.07;100570.28;5053677;28;20445;-73
2023/07/19 10:33:26;;;;;;;4.83;1.00;;;;;;;26.30;41.25;100567.13;5053902;28;20470;-74
2023/07/19 10:35:55;;;;;;;5.47;1.00;;;;;;;26.42;43.84;100574.94;5054241;28;20442;-73
2023/07/19 10:38:23;;;;;;;5.47;1.17;;;;;;;26.75;42.33;100567.13;5054357;28;20521;-72
2023/07/19 10:40:54;;;;;;;4.60;1.00;;;;;;;26.89;42.63;100576.13;5054264;28;20493;-73
2023/07/19 10:43:21;;;;;;;5.33;1.20;;;;;;;27.00;41.39;100577.97;5054196;28;20545;-71
2023/07/19 10:45:48;;;;;;;4.60;1.17;;;;;;;26.95;40.56;100567.31;5053157;28;21073;-70
2023/07/19 10:48:16;;;;;;;7.23;1.30;;;;;;;26.78;41.80;100560.72;5053880;28;20537;-71
2023/07/19 10:50:43;;;;;;;5.93;1.67;;;;;;;26.84;41.51;100562.66;5053983;28;20477;-70
2023/07/19 10:53:10;;;;;;;6.20;1.17;;;;;;;26.83;42.49;100572.22;5053863;28;20537;-70
2023/07/19 10:55:36;;;;;;;4.60;0.93;;;;;;;26.71;42.25;100572.72;5053671;28;20438;-71
2023/07/19 10:58:03;;;;;;;4.40;0.83;;;;;;;26.48;43.14;100572.56;5053965;28;20470;-70
2023/07/19 11:00:30;;;;;;;5.53;0.80;;;;;;;26.33;42.25;100560.72;5053850;28;20498;-70
2023/07/19 11:02:56;;;;;;;4.37;1.00;;;;;;;26.15;42.12;100564.44;5053817;28;20466;-70
2023/07/19 11:05:24;;;;;;;6.53;1.50;;;;;;;25.91;42.52;100568.97;5050888;28;20477;-70
2023/07/19 11:07:51;;;;;;;4.80;0.93;;;;;;;25.89;43.19;100560.25;5052577;28;21077;-70
2023/07/19 11:10:18;;;;;;;5.37;1.37;;;;;;;25.92;43.03;100564.22;5053031;28;20490;-70
2023/07/19 11:12:45;;;;;;;4.40;0.90;;;;;;;25.94;43.99;100570.13;5053209;28;20502;-69
2023/07/19 11:15:12;;;;;;;7.70;1.17;;;;;;;25.84;43.48;100562.66;5049924;28;20494;-69
2023/07/19 11:17:39;;;;;;;4.57;0.93;;;;;;;25.55;42.83;100559.25;5053427;28;20496;-71
2023/07/19 11:20:10;;;;;;;4.23;0.80;;;;;;;25.62;43.80;100556.41;5053125;28;20446;-70
2023/07/19 11:22:38;;;;;;;4.47;0.97;;;;;;;25.71;42.56;100559.53;5053174;28;20454;-70
2023/07/19 11:25:12;;;;;;;5.77;1.20;;;;;;;25.53;44.52;100558.84;5049891;28;20458;-70